Time;durP1;ratioP1;P1;durP2;ratioP2;P2;SDS_P1;SDS_P2;PMS_P1;PMS_P2;Temp;Humidity;BMP_temperature;BMP_pressure;BME280_temperature;BME280_humidity;BME280_pressure;Samples;Min_cycle;Max_cycle;Signal;HPM_P1;HPM_P2
2023/03/11 00:01:28;;;;;;;1.87;1.50;;;17.40;57.60;18.20;99699.00;;;;5016111;28;20185;-46
2023/03/11 00:03:53;;;;;;;1.30;1.20;;;17.40;57.60;18.20;99710.00;;;;5010634;28;20179;-46
2023/03/11 00:06:19;;;;;;;1.47;1.37;;;17.40;57.60;18.20;99709.00;;;;5010517;28;20182;-45
2023/03/11 00:08:45;;;;;;;1.97;1.60;;;17.40;57.70;18.10;99724.00;;;;5010323;28;20207;-46
2023/03/11 00:11:10;;;;;;;1.60;1.50;;;17.40;57.70;18.10;99736.00;;;;5010281;28;20179;-46
2023/03/11 00:13:36;;;;;;;3.97;1.53;;;17.30;57.70;18.10;99727.00;;;;5010365;28;20165;-46
2023/03/11 00:16:02;;;;;;;1.40;1.30;;;17.30;57.70;18.10;99736.00;;;;5010268;28;20680;-46
2023/03/11 00:18:30;;;;;;;2.23;1.20;;;17.30;57.80;18.00;99736.00;;;;5010008;28;20201;-45
2023/03/11 00:20:56;;;;;;;1.53;1.43;;;17.20;57.70;18.00;99736.00;;;;5009907;28;20183;-46
2023/03/11 00:23:22;;;;;;;1.37;1.27;;;17.20;57.80;18.00;99751.00;;;;5008687;28;20187;-46
2023/03/11 00:25:48;;;;;;;1.70;1.40;;;17.20;57.70;18.00;99742.00;;;;5009916;28;20176;-47
2023/03/11 00:28:14;;;;;;;1.40;1.30;;;17.20;57.80;17.90;99742.00;;;;5009639;28;20209;-46
2023/03/11 00:30:40;;;;;;;1.40;1.30;;;17.10;57.80;17.90;99745.00;;;;5009615;28;20179;-45
2023/03/11 00:33:06;;;;;;;1.10;1.10;;;17.10;57.90;17.90;99749.00;;;;5008872;28;20189;-47
2023/03/11 00:35:32;;;;;;;1.57;1.17;;;17.10;57.90;17.90;99762.00;;;;5009106;28;20213;-46
2023/03/11 00:38:01;;;;;;;1.50;1.20;;;17.00;57.80;17.80;99762.00;;;;5008835;28;20205;-46
2023/03/11 00:40:28;;;;;;;1.57;1.40;;;17.00;57.90;17.60;99770.00;;;;5006993;28;20658;-46
2023/03/11 00:42:54;;;;;;;1.23;1.13;;;17.00;58.10;17.80;99789.00;;;;5008599;28;20799;-46
2023/03/11 00:45:21;;;;;;;2.20;1.40;;;17.00;58.10;17.80;99781.00;;;;5009030;28;20189;-46
2023/03/11 00:47:46;;;;;;;1.50;1.40;;;17.00;58.10;17.80;99778.00;;;;5008684;28;20688;-46
2023/03/11 00:50:18;;;;;;;1.23;1.20;;;16.90;58.00;17.80;99780.00;;;;5009042;28;20170;-46
2023/03/11 00:52:45;;;;;;;1.53;1.43;;;16.90;58.00;17.80;99788.00;;;;5008752;28;20820;-47
2023/03/11 00:55:14;;;;;;;1.20;1.20;;;16.90;58.00;17.80;99783.00;;;;5008965;28;20631;-46
2023/03/11 00:57:41;;;;;;;2.37;1.50;;;16.90;58.10;17.70;99785.00;;;;5008823;28;20354;-45
2023/03/11 01:00:10;;;;;;;1.40;1.07;;;16.90;58.10;17.70;99788.00;;;;5008746;28;20181;-46
2023/03/11 01:02:37;;;;;;;1.43;1.30;;;16.80;58.00;17.70;99795.00;;;;5008770;28;20640;-46
2023/03/11 01:05:04;;;;;;;0.90;0.90;;;16.80;58.10;17.70;99800.00;;;;5008563;28;20267;-46
2023/03/11 01:07:30;;;;;;;1.27;1.20;;;16.80;58.30;17.70;99803.00;;;;5008609;28;20658;-45
2023/03/11 01:09:56;;;;;;;1.07;1.00;;;16.80;58.30;17.70;99802.00;;;;5008664;28;20261;-46
2023/03/11 01:12:21;;;;;;;2.97;1.13;;;16.70;58.20;17.60;99807.00;;;;5012643;28;20173;-46
2023/03/11 01:14:47;;;;;;;2.20;1.40;;;16.80;58.30;17.60;99805.00;;;;5011702;28;20228;-46
2023/03/11 01:17:13;;;;;;;1.40;1.30;;;16.80;58.30;17.60;99812.00;;;;5009627;28;20699;-46
2023/03/11 01:19:38;;;;;;;1.40;1.30;;;16.70;58.00;17.60;99811.00;;;;5008733;28;20177;-45
2023/03/11 01:22:04;;;;;;;2.47;1.43;;;16.70;58.10;17.60;99802.00;;;;5008903;28;20189;-45
2023/03/11 01:24:30;;;;;;;1.10;1.10;;;16.70;58.10;17.60;99806.00;;;;5009256;28;20197;-46
2023/03/11 01:26:55;;;;;;;1.00;1.00;;;16.70;58.10;17.50;99819.00;;;;4990913;28;20304;-46
2023/03/11 01:29:21;;;;;;;1.80;1.47;;;16.70;58.10;17.50;99818.00;;;;5009014;28;20185;-46
2023/03/11 01:31:47;;;;;;;1.57;1.13;;;16.60;58.00;17.50;99824.00;;;;5008688;28;20572;-46
2023/03/11 01:34:13;;;;;;;1.50;1.20;;;16.60;58.00;17.50;99811.00;;;;5008709;28;20185;-46
2023/03/11 01:36:38;;;;;;;2.40;1.30;;;16.60;58.00;17.50;99809.00;;;;5008648;28;20217;-46
2023/03/11 01:39:04;;;;;;;1.50;1.40;;;16.60;58.00;17.50;99819.00;;;;5006965;28;20211;-47
2023/03/11 01:41:30;;;;;;;1.20;1.10;;;16.60;58.00;17.50;99828.00;;;;5008416;28;20758;-46
2023/03/11 01:43:56;;;;;;;1.33;1.20;;;16.50;58.10;17.40;99823.00;;;;5008441;28;20268;-46
2023/03/11 01:46:35;;;;;;;1.23;1.13;;;16.50;58.10;17.40;99830.00;;;;5008437;28;20261;-46
2023/03/11 01:49:02;;;;;;;1.20;1.10;;;16.50;58.10;17.40;99827.00;;;;5007107;28;20189;-46
2023/03/11 01:51:36;;;;;;;2.17;1.20;;;16.50;58.10;17.40;99819.00;;;;5008252;28;20168;-47
2023/03/11 01:54:06;;;;;;;2.33;1.43;;;16.50;58.10;17.40;99829.00;;;;5010792;28;20642;-46
2023/03/11 01:56:32;;;;;;;1.50;1.40;;;16.40;58.00;17.30;99827.00;;;;4995227;28;20196;-46
2023/03/11 01:58:57;;;;;;;1.27;1.17;;;16.40;58.00;17.20;99840.00;;;;5012401;28;20317;-46
2023/03/11 02:01:23;;;;;;;1.33;1.10;;;16.40;58.00;17.30;99828.00;;;;5012094;28;20179;-46
2023/03/11 02:03:49;;;;;;;1.37;1.27;;;16.40;58.00;17.30;99829.00;;;;5010989;28;20204;-46
2023/03/11 02:06:19;;;;;;;2.93;1.50;;;16.40;58.00;17.30;99842.00;;;;5010618;28;20668;-45
2023/03/11 02:08:45;;;;;;;1.53;1.10;;;16.30;57.90;17.30;99838.00;;;;5011784;28;20220;-46
2023/03/11 02:11:21;;;;;;;1.47;1.37;;;16.40;58.00;17.20;99847.00;;;;5010329;28;20271;-46
2023/03/11 02:13:46;;;;;;;1.57;1.30;;;16.30;57.90;17.20;99842.00;;;;5010391;28;20695;-47
2023/03/11 02:16:13;;;;;;;1.30;1.20;;;16.30;57.90;17.20;99846.00;;;;5010212;28;20185;-46
2023/03/11 02:18:38;;;;;;;1.23;1.00;;;16.30;58.00;17.20;99832.00;;;;5011907;28;20549;-46
2023/03/11 02:21:22;;;;;;;1.10;1.10;;;16.30;57.90;17.20;99842.00;;;;5014192;28;20189;-46
2023/03/11 02:24:29;;;;;;;1.27;1.17;;;16.30;58.10;17.10;99846.00;;;;5013547;28;20183;-46
2023/03/11 02:27:08;;;;;;;2.17;1.30;;;16.30;58.20;17.10;99844.00;;;;5008492;28;20200;-46
2023/03/11 02:29:34;;;;;;;1.60;1.10;;;16.20;58.30;17.10;99845.00;;;;4981274;28;20180;-46
2023/03/11 02:32:06;;;;;;;1.70;1.40;;;16.20;58.30;17.10;99841.00;;;;5010159;28;20178;-46
2023/03/11 02:34:33;;;;;;;1.70;1.33;;;16.10;58.20;17.00;99837.00;;;;5010270;28;20178;-46
2023/03/11 02:36:59;;;;;;;1.23;1.13;;;16.10;58.40;16.80;99839.00;;;;5010979;28;20198;-46
2023/03/11 02:39:36;;;;;;;1.00;1.00;;;16.20;58.50;17.00;99838.00;;;;5010020;28;20172;-46
2023/03/11 02:42:16;;;;;;;1.10;1.10;;;16.10;58.50;17.00;99846.00;;;;5011027;28;20184;-45
2023/03/11 02:44:43;;;;;;;1.70;1.30;;;16.10;58.50;17.00;99849.00;;;;5009984;28;20542;-47
2023/03/11 02:47:09;;;;;;;1.17;1.07;;;16.00;58.50;17.00;99847.00;;;;5009610;28;20197;-46
2023/03/11 02:49:35;;;;;;;1.30;1.20;;;16.10;58.50;17.00;99867.00;;;;5010008;28;20172;-46
2023/03/11 02:52:01;;;;;;;1.30;1.20;;;16.00;58.30;16.90;99868.00;;;;5009773;28;20173;-46
2023/03/11 02:54:27;;;;;;;1.00;0.90;;;16.00;58.40;16.90;99862.00;;;;5011252;28;20198;-47
2023/03/11 02:56:52;;;;;;;1.40;1.30;;;15.90;58.50;16.90;99877.00;;;;5010988;28;20191;-46
2023/03/11 02:59:18;;;;;;;1.33;1.23;;;15.90;58.60;16.90;99873.00;;;;5011149;28;20174;-46
2023/03/11 03:01:44;;;;;;;1.23;1.00;;;15.90;58.60;16.90;99874.00;;;;5011141;28;20176;-46
2023/03/11 03:04:10;;;;;;;1.03;1.03;;;16.00;58.50;16.90;99876.00;;;;5010274;28;20176;-46
2023/03/11 03:06:35;;;;;;;1.90;1.53;;;15.90;58.50;16.80;99866.00;;;;5010916;28;20193;-46
2023/03/11 03:09:01;;;;;;;1.00;1.00;;;15.90;58.60;16.80;99889.00;;;;5010835;28;20204;-46
2023/03/11 03:11:27;;;;;;;1.40;1.30;;;15.90;58.60;16.80;99879.00;;;;5009745;28;20179;-45
2023/03/11 03:13:53;;;;;;;1.23;1.13;;;15.90;58.50;16.80;99874.00;;;;5010620;28;20216;-46
2023/03/11 03:16:18;;;;;;;1.63;1.33;;;15.90;58.60;16.80;99883.00;;;;5010490;28;20598;-46
2023/03/11 03:18:44;;;;;;;1.53;1.43;;;15.80;58.50;16.80;99870.00;;;;5009181;28;20172;-45
2023/03/11 03:21:10;;;;;;;1.13;1.13;;;15.90;58.50;16.70;99877.00;;;;5010358;28;20306;-46
2023/03/11 03:23:36;;;;;;;1.00;1.00;;;15.80;58.40;16.70;99874.00;;;;5010496;28;20187;-45
2023/03/11 03:26:03;;;;;;;1.40;1.30;;;15.80;58.50;16.70;99871.00;;;;5010601;28;20169;-46
2023/03/11 03:28:29;;;;;;;1.37;1.17;;;15.80;58.50;16.70;99871.00;;;;5015136;28;20188;-45
2023/03/11 03:30:55;;;;;;;1.30;1.17;;;15.80;58.80;16.70;99877.00;;;;5018216;28;20226;-46
2023/03/11 03:33:21;;;;;;;1.53;1.30;;;15.80;58.70;16.70;99879.00;;;;5010756;28;20176;-46
2023/03/11 03:35:46;;;;;;;1.70;1.03;;;15.80;58.70;16.70;99876.00;;;;5010659;28;20203;-46
2023/03/11 03:38:12;;;;;;;1.40;1.30;;;15.70;58.60;16.60;99813.00;;;;5009695;28;20758;-45
2023/03/11 03:40:38;;;;;;;1.60;1.47;;;15.70;58.50;16.60;99885.00;;;;5011148;28;20175;-46
2023/03/11 03:43:04;;;;;;;1.40;1.30;;;15.70;58.70;16.60;99881.00;;;;5010904;28;20191;-45
2023/03/11 03:45:30;;;;;;;0.90;0.90;;;15.70;58.60;16.60;99899.00;;;;5010966;28;20186;-46
2023/03/11 03:47:55;;;;;;;1.30;1.20;;;15.70;58.50;16.60;99904.00;;;;5010550;28;20200;-45
2023/03/11 03:50:21;;;;;;;1.17;1.07;;;15.60;58.60;16.60;99897.00;;;;5010982;28;20175;-45
2023/03/11 03:52:47;;;;;;;1.20;1.10;;;15.60;58.60;16.50;99900.00;;;;5010606;28;20183;-46
2023/03/11 03:55:13;;;;;;;0.97;0.97;;;15.60;58.60;16.50;99909.00;;;;5010644;28;20180;-46
2023/03/11 03:57:39;;;;;;;1.43;1.30;;;15.70;58.60;16.50;99913.00;;;;5010592;28;20245;-51
2023/03/11 04:00:08;;;;;;;1.13;1.00;;;15.60;58.40;16.50;99916.00;;;;5010428;28;20195;-46
2023/03/11 04:02:33;;;;;;;1.20;1.10;;;15.60;58.50;16.50;99917.00;;;;5010497;28;20175;-46
2023/03/11 04:04:59;;;;;;;1.23;1.13;;;15.60;58.40;16.50;99919.00;;;;5010947;28;20688;-47
2023/03/11 04:07:25;;;;;;;1.33;1.23;;;15.60;58.50;16.50;99921.00;;;;5010090;28;20685;-46
2023/03/11 04:09:50;;;;;;;1.13;1.03;;;15.60;58.50;16.50;99930.00;;;;5009927;28;20176;-46
2023/03/11 04:12:16;;;;;;;1.47;1.23;;;15.60;58.50;16.50;99927.00;;;;5011658;28;20176;-46
2023/03/11 04:14:42;;;;;;;1.53;1.43;;;15.50;58.50;16.40;99930.00;;;;5011204;28;20188;-46
2023/03/11 04:17:11;;;;;;;1.33;1.23;;;15.50;58.50;16.40;99940.00;;;;5009997;28;20196;-46
2023/03/11 04:19:37;;;;;;;1.37;1.27;;;15.50;58.50;16.40;99937.00;;;;5008838;28;20187;-46
2023/03/11 04:22:03;;;;;;;1.27;1.17;;;15.50;58.50;16.40;99955.00;;;;5009813;28;20180;-46
2023/03/11 04:24:28;;;;;;;1.30;1.20;;;15.50;58.60;16.40;99886.00;;;;5009952;28;20223;-46
2023/03/11 04:26:54;;;;;;;2.90;1.47;;;15.50;58.70;16.40;99950.00;;;;5003794;28;20683;-46
2023/03/11 04:29:20;;;;;;;2.27;1.30;;;15.50;59.00;16.40;99949.00;;;;5004285;28;20172;-45
2023/03/11 04:31:45;;;;;;;2.33;1.50;;;15.40;58.90;16.40;99953.00;;;;5007110;28;20186;-46
2023/03/11 04:34:11;;;;;;;3.37;1.40;;;15.40;58.70;16.30;99954.00;;;;5009741;28;20576;-46
2023/03/11 04:36:37;;;;;;;2.10;1.10;;;15.40;58.70;16.30;99954.00;;;;5019322;28;20199;-48
2023/03/11 04:39:03;;;;;;;3.43;1.33;;;15.40;58.70;16.30;99961.00;;;;5018594;28;20196;-46
2023/03/11 04:41:28;;;;;;;2.10;1.30;;;15.40;58.70;16.30;99958.00;;;;5009702;28;20183;-46
2023/03/11 04:43:54;;;;;;;3.50;1.60;;;15.40;58.60;16.30;99968.00;;;;5009567;28;20195;-46
2023/03/11 04:46:20;;;;;;;3.77;1.50;;;15.30;58.40;16.30;99970.00;;;;5009947;28;20183;-46
2023/03/11 04:48:45;;;;;;;4.03;1.60;;;15.30;58.20;16.20;99975.00;;;;5009859;28;20231;-46
2023/03/11 04:51:11;;;;;;;3.87;1.67;;;15.30;58.10;16.20;99981.00;;;;5009651;28;20234;-46
2023/03/11 04:53:37;;;;;;;2.00;1.40;;;15.30;58.00;16.20;99978.00;;;;5010375;28;20188;-46
2023/03/11 04:56:03;;;;;;;1.60;1.50;;;15.30;57.80;16.20;99972.00;;;;5009773;28;20583;-46
2023/03/11 04:58:28;;;;;;;2.47;1.60;;;15.30;57.80;16.20;99982.00;;;;5009854;28;20195;-46
2023/03/11 05:00:55;;;;;;;1.70;1.60;;;15.20;57.60;16.20;99975.00;;;;5009224;28;20686;-46
2023/03/11 05:03:20;;;;;;;3.33;1.63;;;15.20;57.50;16.10;99979.00;;;;5009479;28;20226;-46
2023/03/11 05:05:46;;;;;;;2.67;1.80;;;15.20;57.40;16.10;99985.00;;;;5009467;28;20184;-46
2023/03/11 05:08:12;;;;;;;2.70;1.70;;;15.20;57.20;16.10;99983.00;;;;5009500;28;20208;-46
2023/03/11 05:10:40;;;;;;;2.50;1.70;;;15.20;57.20;16.10;99983.00;;;;5009846;28;20191;-46
2023/03/11 05:13:06;;;;;;;2.20;1.70;;;15.10;57.00;16.10;99994.00;;;;5007961;28;20239;-46
2023/03/11 05:15:32;;;;;;;2.87;1.83;;;15.10;57.00;16.00;99990.00;;;;5008523;28;20245;-47
2023/03/11 05:17:57;;;;;;;2.43;1.83;;;15.10;56.90;16.00;99989.00;;;;5009395;28;20681;-46
2023/03/11 05:20:23;;;;;;;2.00;1.70;;;15.10;56.90;16.00;99992.00;;;;5009315;28;20180;-45
2023/03/11 05:22:49;;;;;;;3.67;2.20;;;15.10;56.70;16.00;99994.00;;;;5009396;28;20187;-46
2023/03/11 05:25:15;;;;;;;1.97;1.70;;;15.10;56.60;16.00;99993.00;;;;5009493;28;20557;-46
2023/03/11 05:27:41;;;;;;;1.97;1.77;;;15.00;56.50;16.00;99994.00;;;;5010879;28;20203;-46
2023/03/11 05:30:07;;;;;;;3.67;1.90;;;15.00;56.40;15.90;99991.00;;;;5013247;28;20179;-45
2023/03/11 05:32:33;;;;;;;2.93;2.00;;;15.00;56.30;15.90;99991.00;;;;5009343;28;20698;-45
2023/03/11 05:35:00;;;;;;;2.90;2.07;;;15.00;56.40;15.90;99998.00;;;;5006090;28;20267;-45
2023/03/11 05:37:26;;;;;;;4.50;2.07;;;15.00;56.60;15.90;99994.00;;;;5008560;28;20203;-45
2023/03/11 05:39:51;;;;;;;3.63;2.00;;;14.90;56.60;15.90;100000.00;;;;5005242;28;20188;-45
2023/03/11 05:42:17;;;;;;;2.13;1.60;;;14.90;56.70;15.90;100003.00;;;;5012691;28;20187;-46
2023/03/11 05:44:43;;;;;;;4.53;2.00;;;14.90;56.70;15.90;100012.00;;;;5014368;28;20184;-46
2023/03/11 05:47:09;;;;;;;2.73;1.70;;;14.90;56.90;15.80;100005.00;;;;5019936;28;20200;-46
2023/03/11 05:49:34;;;;;;;5.97;2.10;;;14.90;57.10;15.80;100016.00;;;;5023426;28;20172;-46
2023/03/11 05:52:00;;;;;;;3.97;2.20;;;15.00;57.20;15.80;100011.00;;;;5020568;28;20203;-45
2023/03/11 05:54:26;;;;;;;5.80;2.17;;;14.90;57.30;15.80;100007.00;;;;5005741;28;20184;-45
2023/03/11 05:56:51;;;;;;;9.80;2.50;;;14.90;57.70;15.80;100017.00;;;;5011273;28;20203;-46
2023/03/11 05:59:18;;;;;;;5.53;2.20;;;14.90;58.10;15.80;100020.00;;;;5012675;28;20667;-46
2023/03/11 06:01:43;;;;;;;3.63;2.03;;;14.90;58.20;15.80;100028.00;;;;5012215;28;20623;-46
2023/03/11 06:04:09;;;;;;;4.97;2.40;;;14.80;57.80;15.70;100029.00;;;;5011851;28;20176;-46
2023/03/11 06:06:35;;;;;;;4.30;2.30;;;14.80;57.40;15.70;100029.00;;;;5012021;28;20226;-46
2023/03/11 06:09:02;;;;;;;6.33;2.27;;;14.80;57.10;15.70;100029.00;;;;5022235;28;20210;-46
2023/03/11 06:11:28;;;;;;;6.37;2.40;;;14.70;56.70;15.70;100032.00;;;;5028061;28;20180;-45
2023/03/11 06:13:55;;;;;;;4.10;2.20;;;14.70;56.60;15.60;100031.00;;;;5019393;28;20183;-46
2023/03/11 06:16:22;;;;;;;4.60;2.30;;;14.70;56.40;15.60;100033.00;;;;5012479;28;20187;-46
2023/03/11 06:18:47;;;;;;;3.83;2.03;;;14.70;56.10;15.60;100040.00;;;;5011307;28;20179;-46
2023/03/11 06:21:18;;;;;;;2.80;2.20;;;14.60;55.90;15.60;100038.00;;;;5011430;28;20557;-46
2023/03/11 06:23:44;;;;;;;2.97;2.00;;;14.60;55.80;15.50;100046.00;;;;5010027;28;20195;-46
2023/03/11 06:26:13;;;;;;;3.20;1.97;;;14.60;55.70;15.50;100048.00;;;;5011507;28;20179;-47
2023/03/11 06:28:40;;;;;;;3.93;2.10;;;14.60;55.80;15.50;100057.00;;;;5012029;28;20294;-46
2023/03/11 06:31:12;;;;;;;4.47;2.10;;;14.60;55.80;15.50;100033.00;;;;5009239;28;20195;-46
2023/03/11 06:33:37;;;;;;;3.53;2.00;;;14.60;56.00;15.50;100053.00;;;;5010564;28;20549;-46
2023/03/11 06:36:04;;;;;;;5.87;2.30;;;14.60;56.10;15.50;100061.00;;;;5011466;28;20183;-46
2023/03/11 06:38:30;;;;;;;3.30;2.00;;;14.60;56.10;15.50;100059.00;;;;5010425;28;20214;-46
2023/03/11 06:41:00;;;;;;;4.63;2.10;;;14.60;56.20;15.40;100065.00;;;;5011192;28;20263;-46
2023/03/11 06:43:26;;;;;;;3.17;1.97;;;14.60;56.20;15.40;100075.00;;;;5011556;28;20190;-46
2023/03/11 06:45:51;;;;;;;2.90;1.90;;;14.50;56.20;15.40;100076.00;;;;5011009;28;20270;-46
2023/03/11 06:48:17;;;;;;;3.50;2.20;;;14.50;56.30;15.40;100075.00;;;;5010314;28;20710;-46
2023/03/11 06:50:43;;;;;;;3.60;1.97;;;14.60;56.50;15.40;100078.00;;;;5011077;28;20172;-46
2023/03/11 06:53:09;;;;;;;2.50;1.90;;;14.50;56.50;15.40;100087.00;;;;5011056;28;20183;-45
2023/03/11 06:55:35;;;;;;;3.13;1.70;;;14.50;56.50;15.40;100085.00;;;;5013325;28;20695;-45
2023/03/11 06:58:01;;;;;;;2.33;1.73;;;14.50;56.50;15.40;100090.00;;;;5011276;28;20290;-45
2023/03/11 07:00:27;;;;;;;3.83;2.00;;;14.50;56.60;15.40;100096.00;;;;5010931;28;20214;-44
2023/03/11 07:02:52;;;;;;;3.87;1.90;;;14.50;56.60;15.30;100091.00;;;;5010564;28;20594;-45
2023/03/11 07:05:18;;;;;;;2.60;1.87;;;14.50;56.70;15.30;100103.00;;;;5010648;28;20643;-45
2023/03/11 07:07:44;;;;;;;1.97;1.50;;;14.50;56.70;15.30;100107.00;;;;5010891;28;20203;-46
2023/03/11 07:10:10;;;;;;;1.83;1.67;;;14.40;56.70;15.30;100127.00;;;;5010911;28;20190;-47
2023/03/11 07:12:36;;;;;;;2.90;1.70;;;14.40;56.70;15.30;100114.00;;;;5010434;28;20179;-45
2023/03/11 07:15:02;;;;;;;4.20;2.17;;;14.40;56.80;15.30;100128.00;;;;5010062;28;20172;-45
2023/03/11 07:17:28;;;;;;;2.57;1.80;;;14.40;56.90;15.30;100138.00;;;;5009629;28;20246;-46
2023/03/11 07:19:54;;;;;;;2.83;1.67;;;14.40;56.90;15.30;100139.00;;;;5009006;28;20203;-46
2023/03/11 07:22:19;;;;;;;1.90;1.60;;;14.40;57.00;15.20;100132.00;;;;5008165;28;20183;-45
2023/03/11 07:24:46;;;;;;;2.13;1.70;;;14.40;57.10;15.20;100143.00;;;;5009221;28;20207;-45
2023/03/11 07:27:12;;;;;;;3.80;1.77;;;14.30;57.60;15.20;100135.00;;;;5009398;28;21012;-45
2023/03/11 07:29:38;;;;;;;3.03;2.20;;;14.30;57.00;15.20;100145.00;;;;5010782;28;20176;-46
2023/03/11 07:32:05;;;;;;;1.93;1.60;;;14.40;57.10;15.20;100151.00;;;;5010356;28;20199;-46
2023/03/11 07:34:31;;;;;;;2.67;2.00;;;14.30;57.00;15.20;100153.00;;;;5008373;28;20180;-45
2023/03/11 07:36:57;;;;;;;2.80;1.97;;;14.30;57.10;15.20;100158.00;;;;5008079;28;20701;-46
2023/03/11 07:39:22;;;;;;;3.10;1.90;;;14.30;57.10;15.20;100165.00;;;;5010242;28;20172;-45
2023/03/11 07:41:48;;;;;;;2.97;2.00;;;14.30;57.20;15.10;100172.00;;;;5009434;28;20187;-46
2023/03/11 07:44:14;;;;;;;2.47;1.90;;;14.20;57.10;15.10;100182.00;;;;5010360;28;20213;-46
2023/03/11 07:46:40;;;;;;;2.13;1.67;;;14.30;57.20;15.10;100176.00;;;;5018102;28;20198;-47
2023/03/11 07:49:06;;;;;;;2.27;1.63;;;14.30;57.20;15.10;100172.00;;;;5015313;28;20207;-46
2023/03/11 07:51:33;;;;;;;2.40;1.73;;;14.30;57.30;15.10;100184.00;;;;5009933;28;20785;-46
2023/03/11 07:53:59;;;;;;;1.93;1.70;;;14.30;57.40;15.10;100181.00;;;;5009545;28;20175;-46
2023/03/11 07:56:27;;;;;;;1.77;1.63;;;14.20;57.30;14.80;100195.00;;;;5009830;28;20204;-45
2023/03/11 07:58:53;;;;;;;2.23;1.70;;;14.30;57.40;15.10;100191.00;;;;5009885;28;20614;-45
2023/03/11 08:01:21;;;;;;;1.67;1.50;;;14.20;57.30;15.10;100206.00;;;;5009450;28;20233;-49
2023/03/11 08:03:48;;;;;;;1.93;1.63;;;14.20;57.40;15.00;100196.00;;;;5009991;28;20907;-46
2023/03/11 08:06:16;;;;;;;2.57;1.70;;;14.10;57.40;15.00;100196.00;;;;5010050;28;20175;-46
2023/03/11 08:08:42;;;;;;;1.70;1.53;;;14.20;57.50;15.00;100208.00;;;;5008644;28;20207;-46
2023/03/11 08:11:08;;;;;;;3.77;1.90;;;14.20;57.50;15.00;100197.00;;;;5007869;28;20179;-48
2023/03/11 08:13:34;;;;;;;3.00;1.80;;;14.20;57.50;15.00;100205.00;;;;5008559;28;20172;-45
2023/03/11 08:16:03;;;;;;;1.90;1.70;;;14.10;57.50;15.00;100205.00;;;;5009925;28;20258;-47
2023/03/11 08:18:29;;;;;;;1.70;1.60;;;14.20;57.70;15.00;100201.00;;;;5009545;28;20210;-46
2023/03/11 08:20:56;;;;;;;1.70;1.60;;;14.10;57.60;15.00;100204.00;;;;5010900;28;20171;-45
2023/03/11 08:23:21;;;;;;;1.70;1.57;;;14.10;57.60;15.00;100206.00;;;;5013743;28;20195;-45
2023/03/11 08:25:47;;;;;;;2.53;1.80;;;14.10;57.60;14.90;100205.00;;;;5014865;28;20178;-45
2023/03/11 08:28:14;;;;;;;1.67;1.57;;;14.10;57.70;14.90;100215.00;;;;5011228;28;20322;-46
2023/03/11 08:30:40;;;;;;;1.93;1.73;;;14.10;57.70;14.90;100212.00;;;;5011013;28;20218;-45
2023/03/11 08:33:06;;;;;;;2.00;1.50;;;14.10;57.70;14.90;100213.00;;;;5010846;28;20553;-46
2023/03/11 08:35:32;;;;;;;1.67;1.57;;;14.10;57.80;14.90;100211.00;;;;5010167;28;20176;-45
2023/03/11 08:37:57;;;;;;;2.23;1.50;;;14.10;57.80;14.90;100214.00;;;;5009740;28;20201;-45
2023/03/11 08:40:23;;;;;;;2.20;1.70;;;14.00;57.80;14.90;100218.00;;;;5009970;28;20190;-46
2023/03/11 08:42:49;;;;;;;2.30;1.67;;;14.00;57.90;14.90;100215.00;;;;5009915;28;20183;-45
2023/03/11 08:45:15;;;;;;;2.07;1.70;;;14.00;57.90;14.90;100205.00;;;;5010240;28;20180;-46
2023/03/11 08:47:40;;;;;;;1.77;1.40;;;14.00;57.90;14.90;100211.00;;;;5010254;28;20203;-45
2023/03/11 08:50:12;;;;;;;1.70;1.50;;;14.00;58.60;14.90;100218.00;;;;5009969;28;20180;-46
2023/03/11 08:52:37;;;;;;;1.40;1.30;;;14.00;58.00;14.90;100222.00;;;;5009818;28;20199;-45
2023/03/11 08:55:04;;;;;;;1.33;1.23;;;14.00;58.00;14.90;100227.00;;;;5008769;28;20223;-45
2023/03/11 08:57:31;;;;;;;1.37;1.27;;;14.00;58.20;14.90;100222.00;;;;5010171;28;20207;-45
2023/03/11 08:59:57;;;;;;;1.70;1.60;;;14.00;58.20;14.90;100222.00;;;;5009902;28;20183;-47
2023/03/11 09:02:24;;;;;;;1.47;1.33;;;14.00;58.10;14.80;100225.00;;;;5008338;28;20579;-47
2023/03/11 09:04:50;;;;;;;1.77;1.60;;;14.00;58.20;14.90;100219.00;;;;5010063;28;20184;-46
2023/03/11 09:07:16;;;;;;;2.43;1.60;;;14.00;58.10;14.80;100230.00;;;;5009725;28;20660;-46
2023/03/11 09:09:41;;;;;;;2.33;1.60;;;14.00;58.20;14.80;100227.00;;;;5009603;28;20902;-46
2023/03/11 09:12:08;;;;;;;1.57;1.47;;;14.00;58.20;14.80;100227.00;;;;5008887;28;20654;-46
2023/03/11 09:14:36;;;;;;;1.73;1.60;;;14.00;58.30;14.80;100243.00;;;;5009488;28;20199;-46
2023/03/11 09:17:02;;;;;;;2.27;1.50;;;14.00;58.30;14.80;100238.00;;;;5010046;28;20227;-46
2023/03/11 09:19:27;;;;;;;1.70;1.60;;;14.00;58.40;14.80;100236.00;;;;5010218;28;20167;-46
2023/03/11 09:21:53;;;;;;;1.83;1.50;;;14.00;58.40;14.80;100237.00;;;;5009519;28;20587;-45
2023/03/11 09:24:19;;;;;;;1.70;1.60;;;13.90;58.40;14.80;100228.00;;;;5010085;28;20238;-46
2023/03/11 09:26:44;;;;;;;1.47;1.30;;;13.90;58.50;14.80;100225.00;;;;5009647;28;20191;-46
2023/03/11 09:29:10;;;;;;;1.50;1.40;;;13.90;58.70;14.80;100227.00;;;;5009775;28;20615;-46
2023/03/11 09:31:37;;;;;;;1.60;1.50;;;13.90;58.80;14.80;100215.00;;;;5009290;28;20176;-49
2023/03/11 09:34:03;;;;;;;1.77;1.63;;;13.90;58.90;14.80;100209.00;;;;5009378;28;20183;-47
2023/03/11 09:36:28;;;;;;;1.50;1.40;;;13.90;58.90;14.80;100208.00;;;;5009160;28;20174;-46
2023/03/11 09:38:54;;;;;;;1.80;1.63;;;13.80;59.10;14.80;100214.00;;;;5009274;28;20191;-46
2023/03/11 09:41:26;;;;;;;1.60;1.50;;;13.80;59.10;14.80;100221.00;;;;5009951;28;20195;-45
2023/03/11 09:44:01;;;;;;;1.50;1.33;;;13.80;59.10;14.80;100224.00;;;;4992929;28;20643;-46
2023/03/11 09:47:04;;;;;;;1.53;1.43;;;13.80;59.20;14.80;100227.00;;;;5009437;28;20207;-46
2023/03/11 09:49:36;;;;;;;1.50;1.40;;;13.80;59.40;14.70;100230.00;;;;5008561;28;20262;-45
2023/03/11 09:52:15;;;;;;;1.40;1.30;;;13.80;59.30;14.70;100242.00;;;;5008431;28;20223;-45
2023/03/11 09:54:52;;;;;;;1.60;1.50;;;13.80;59.40;14.70;100236.00;;;;5009631;28;20178;-46
2023/03/11 09:57:38;;;;;;;1.40;1.30;;;13.80;59.40;14.70;100244.00;;;;5008007;28;20820;-46
2023/03/11 10:00:06;;;;;;;1.83;1.60;;;13.80;59.70;14.70;100233.00;;;;5009060;28;20188;-46
2023/03/11 10:02:32;;;;;;;1.43;1.33;;;13.80;59.80;14.70;100252.00;;;;5008683;28;20190;-46
2023/03/11 10:05:02;;;;;;;1.43;1.30;;;13.80;59.90;14.70;100248.00;;;;5008309;28;20350;-46
2023/03/11 10:07:34;;;;;;;1.40;1.30;;;13.80;60.10;14.70;100250.00;;;;5008576;28;20272;-45
2023/03/11 10:09:59;;;;;;;1.60;1.50;;;13.80;60.10;14.70;100257.00;;;;5008266;28;20639;-46
2023/03/11 10:13:16;;;;;;;1.40;1.30;;;13.80;60.10;14.70;100258.00;;;;5009110;28;20263;-46
2023/03/11 10:16:13;;;;;;;1.80;1.40;;;13.80;60.10;14.70;100269.00;;;;5012125;28;20187;-46
2023/03/11 10:18:53;;;;;;;7.90;1.80;;;13.80;61.00;14.70;100270.00;;;;5011615;28;20183;-46
2023/03/11 10:21:46;;;;;;;3.10;1.77;;;13.90;62.10;14.70;100276.00;;;;5011183;28;20171;-46
2023/03/11 10:24:52;;;;;;;5.03;1.60;;;13.90;62.90;14.70;100273.00;;;;5011324;28;20184;-45
2023/03/11 10:27:21;;;;;;;4.00;1.40;;;14.00;62.90;14.70;100258.00;;;;5011027;28;20215;-45
2023/03/11 10:30:08;;;;;;;3.37;1.53;;;14.00;62.80;14.70;100269.00;;;;5011413;28;20748;-46
2023/03/11 10:32:43;;;;;;;4.27;1.70;;;14.00;62.50;14.70;100278.00;;;;5011240;28;20178;-46
2023/03/11 10:35:20;;;;;;;3.63;1.80;;;14.00;62.80;14.70;100272.00;;;;5011150;28;20175;-45
2023/03/11 10:37:52;;;;;;;6.63;1.93;;;14.00;62.40;14.70;100276.00;;;;5012726;28;20187;-46
2023/03/11 10:40:32;;;;;;;3.47;1.27;;;14.00;62.40;14.80;100276.00;;;;5011185;28;20853;-45
2023/03/11 10:43:08;;;;;;;1.80;1.60;;;14.00;62.10;14.80;100283.00;;;;5010138;28;20179;-45
2023/03/11 10:45:40;;;;;;;2.07;1.60;;;13.90;62.00;14.80;100286.00;;;;5011233;28;20262;-46
2023/03/11 10:48:14;;;;;;;6.57;2.13;;;13.90;62.10;14.80;100284.00;;;;5012154;28;20269;-46
2023/03/11 10:51:01;;;;;;;3.53;1.80;;;13.90;62.00;14.80;100295.00;;;;5012425;28;20266;-46
2023/03/11 10:53:26;;;;;;;3.10;1.87;;;13.90;62.10;14.70;100286.00;;;;5010838;28;20693;-45